Tiempo atmosférico en la estación meteorológica de Fuente De Cantos, Badajoz (602 m.)

Fecha
DESCASC
Temp. máxima en grados centígrados (hora)
DESCASC
Temp. mínima en grados centígrados (hora)
DESCASC
Temp. media en grados centígrados
DESCASC
Racha de viento máxima en m/sg (hora)
DESCASC
Velocidad máxima media en intervalos de 10 minutos(hora)
DESCASC
Precipitaciones diarias en mm
DESCASC
Precipitaciones de 00:00 a 06:00 en mm
DESCASC
Precipitaciones de 06:00 a 12:00 en mm
DESCASC
Precipitaciones de 12:00 a 18:00 en mm
DESCASC
Precipitaciones de 18:00 a 24:00 en mm
DESCASC
21-09-2017 28.9 (17:50) 16.2 (08:10) 22.6 10.56 (19:20) 8.61 (19:20) 0 0 0 0 0
20-09-2017 30.2 (18:00) 17.1 (08:00) 23.7 7.78 (15:50) 5 (15:30) 0 0 0 0 0
19-09-2017 28.6 (18:20) 13.7 (07:00) 21.2 6.67 (18:30) 4.72 (20:20) 0 0 0 0 0
18-09-2017 24.7 (16:30) 8.4 (08:30) 16.6 12.22 (16:30) 8.89 (16:30) 0 0 0 0 0
17-09-2017 26.2 (16:40) 12.5 (00:00) 19.4 9.72 (19:00) 6.94 (19:00) 0 0 0 0 0
16-09-2017 24 (17:40) 8.9 (00:00) 16.4 8.61 (18:00) 5.28 (00:10) 0 0 0 0 0
15-09-2017 24.2 (17:50) 9.6 (00:00) 16.9 11.94 (17:00) 7.22 (19:50) 0 0 0 0 0
14-09-2017 29.7 (17:40) 17.8 (00:00) 23.8 8.61 (18:00) 6.39 (18:20) 0 0 0 0 0
13-09-2017 33.6 (17:30) 18.8 (00:00) 26.2 10.28 (16:50) 6.39 (19:20) 0 0 0 0 0
12-09-2017 30.2 (17:10) 16.1 (00:00) 23.2 11.39 (15:10) 6.67 (17:40) 0 0 0 0 0
11-09-2017 31.5 (17:10) 15.9 (00:00) 23.7 9.44 (19:00) 6.67 (19:40) 0 0 0 0 0
10-09-2017 25 (18:20) 9.3 (00:00) 17.2 9.17 (00:30) 6.67 (00:30) 0 0 0 0 0
09-09-2017 25.1 (16:10) 11 (00:00) 18.1 15.28 (16:30) 11.11 (18:10) 0 0 0 0 0
08-09-2017 33.6 (17:10) 20.4 (00:00) 27 10.56 (17:20) 6.94 (18:30) 0 0 0 0 0
07-09-2017 34.1 (16:40) 22.1 (00:00) 28.1 10.28 (15:00) 6.39 (19:20) 0 0 0 0 0
06-09-2017 34.9 (16:30) 21.7 (00:00) 28.3 8.61 (16:00) 6.39 (19:10) 0 0 0 0 0
05-09-2017 34 (18:10) 17.2 (00:00) 25.6 8.33 (20:30) 6.39 (20:40) 0 0 0 0 0
04-09-2017 29.8 (17:10) 14.7 (00:00) 22.2 10.28 (17:40) 6.11 (16:00) 0 0 0 0 0
03-09-2017 31.7 (15:20) 19.9 (00:00) 25.8 10.28 (17:20) 6.94 (16:50) 0 0 0 0 0
02-09-2017 32.4 (18:30) 16.7 (00:00) 24.6 8.06 (22:10) 6.11 (22:10) 0 0 0 0 0
01-09-2017 31.8 (18:00) 18.7 (00:00) 25.3 8.89 (19:30) 6.67 (19:40) 0 0 0 0 0
31-08-2017 30.2 (17:50) 16.1 (00:00) 23.2 9.17 (16:40) 5 (02:50) 0 0 0 0 0
30-08-2017 26.2 (17:20) 13.9 (00:00) 20.1 7.78 (16:00) 4.44 (05:20) 0 0 0 0 0
29-08-2017 22.5 (14:40) 13.9 (00:00) 18.2 8.89 (15:30) 6.67 (15:20) 2.2 0 0 2.2 0
28-08-2017 26.8 (16:20) 13.5 (00:00) 20.1 10 (19:00) 8.06 (19:00) 0 0 0 0 0
27-08-2017 29.2 (15:30) 20.1 (00:00) 24.7 16.11 (09:00) 12.78 (09:10) 0 0 0 0 0
26-08-2017 33.4 (17:30) 21.7 (00:00) 27.6 13.89 (16:20) 9.72 (16:20) 0 0 0 0 0
25-08-2017 35.3 (17:50) 19.1 (00:00) 27.2 12.5 (16:00) 9.17 (16:00) 0 0 0 0 0
24-08-2017 35.6 (17:20) 20.1 (00:00) 27.8 12.5 (16:40) 8.06 (18:40) 0 0 0 0 0

Gráficas

Temp. máximas Temp. mínimas Temp. medias Precipitaciones Rachas de viento máximas Velocidades máximas media en intervalos de 10 minutos

Datos horarios

Fecha y hora oficial Temperatura (ºC) Velocidad del viento (km/h) Dirección del viento Racha (km/h) Dirección de racha Precipitación (mm) Presión (hPa) Tendencia (hPa) Humedad (%)
2017-09-22 23:00:00 21.6 7 Sudoeste 13 Noroeste 0 -- -- 37
2017-09-22 22:00:00 22.3 8 Noroeste 15 Noroeste 0 -- -- 36
2017-09-22 21:00:00 23.8 14 Noroeste 18 Oeste 0 -- -- 33
2017-09-22 20:00:00 25.9 14 Oeste 24 Oeste 0 -- -- 31
2017-09-22 19:00:00 28 15 Noroeste 26 Oeste 0 -- -- 28
2017-09-22 18:00:00 28.7 10 Noroeste 23 Oeste 0 -- -- 27
2017-09-22 17:00:00 28.6 12 Sudoeste 25 Norte 0 -- -- 26
2017-09-22 16:00:00 28.6 9 Este 26 Sudoeste 0 -- -- 26
2017-09-22 15:00:00 27.8 14 Sudoeste 30 Oeste 0 -- -- 27
2017-09-22 14:00:00 27.2 13 Oeste 21 Oeste 0 -- -- 30
2017-09-22 13:00:00 26.1 7 Sur 16 Sudeste 0 -- -- 36
2017-09-22 12:00:00 25 3 Este 8 Este 0 -- -- 40
2017-09-22 11:00:00 22.1 4 Sudeste 13 Sudeste 0 -- -- 51
2017-09-22 10:00:00 18 5 Sudeste 8 Sudeste 0 -- -- 67
2017-09-22 09:00:00 14 4 Oeste 7 Sudoeste 0 -- -- 78
2017-09-22 08:00:00 14.5 5 Oeste -- -- 0 -- -- 75
2017-09-22 07:00:00 14.9 9 Oeste 10 Oeste 0 -- -- 73
2017-09-22 06:00:00 16 4 Sudoeste 9 Sudoeste 0 -- -- 70
2017-09-22 05:00:00 16.7 7 Sudoeste 9 Sudoeste 0 -- -- 67
2017-09-22 04:00:00 16.7 5 Sudoeste 8 Sudoeste 0 -- -- 64
2017-09-22 03:00:00 17.2 5 Sudoeste 8 Oeste 0 -- -- 59
2017-09-22 02:00:00 17.7 5 Sudoeste 9 Oeste 0 -- -- 53
2017-09-22 01:00:00 18.6 6 Sudoeste 10 Oeste 0 -- -- 45
2017-09-22 00:00:00 19.7 7 Sudoeste 10 Noroeste 0 -- -- 41
2017-09-21 23:00:00 20.2 6 Noroeste 12 Noroeste 0 -- -- 39
2017-09-21 22:00:00 21.6 7 Noroeste 13 Oeste 0 -- -- 36
2017-09-21 21:00:00 23 11 Noroeste 26 Noroeste 0 -- -- 35
2017-09-21 20:00:00 25 20 Noroeste 38 Noroeste 0 -- -- 33
2017-09-21 19:00:00 26.9 19 Oeste 32 Oeste 0 -- -- 31
2017-09-21 18:00:00 28.5 19 Oeste 29 Oeste 0 -- -- 28
2017-09-21 17:00:00 28.2 9 Oeste 28 Oeste 0 -- -- 29
2017-09-21 16:00:00 28.6 6 Sur 20 Sudeste 0 -- -- 29
2017-09-21 15:00:00 27.9 10 Norte 23 Oeste 0 -- -- 31
2017-09-21 14:00:00 27 12 Noroeste 19 Noroeste 0 -- -- 32
2017-09-21 13:00:00 25.7 8 Norte 13 Noroeste 0 -- -- 34
2017-09-21 12:00:00 24.5 5 Oeste 13 Oeste 0 -- -- 38
2017-09-21 11:00:00 23 4 Norte 6 Nordeste 0 -- -- 42
2017-09-21 10:00:00 20.1 3 Sudeste 9 Sudeste 0 -- -- 48
2017-09-21 09:00:00 16.4 5 Sur 5 Sur 0 -- -- 57
2017-09-21 08:00:00 16.3 3 Oeste 8 Oeste 0 -- -- 57
2017-09-21 07:00:00 17.2 6 Oeste 8 Oeste 0 -- -- 54
2017-09-21 06:00:00 17.7 6 Sudoeste 8 Sudoeste 0 -- -- 53
2017-09-21 05:00:00 17.6 6 Sudoeste 9 Sudoeste 0 -- -- 53
2017-09-21 04:00:00 17.9 7 Sudoeste 10 Sudoeste 0 -- -- 52
2017-09-21 03:00:00 18.3 5 Sudoeste 13 Oeste 0 -- -- 50
2017-09-21 02:00:00 18.9 10 Oeste 13 Oeste 0 -- -- 48
2017-09-21 01:00:00 20 8 Oeste 11 Sudoeste 0 -- -- 46
2017-09-21 00:00:00 21.2 7 Sudoeste 14 Sudoeste 0 -- -- 43
2017-09-20 23:00:00 21.7 8 Sudoeste 17 Sudoeste 0 -- -- 42
2017-09-20 22:00:00 23.1 14 Sudoeste 19 Sudoeste 0 -- -- 37
2017-09-20 21:00:00 25 9 Oeste 20 Oeste 0 -- -- 32
2017-09-20 20:00:00 27.6 15 Oeste 28 Oeste 0 -- -- 29
2017-09-20 19:00:00 29.4 12 Oeste 19 Noroeste 0 -- -- 26
2017-09-20 18:00:00 30.2 5 Sudoeste 20 Sudoeste 0 -- -- 24
2017-09-20 17:00:00 29.9 14 Sudoeste 23 Sudoeste 0 -- -- 23
2017-09-20 16:00:00 29.6 14 Sudoeste 28 Sudoeste 0 -- -- 24
2017-09-20 15:00:00 29.3 13 Sudoeste 25 Sur 0 -- -- 25
2017-09-20 14:00:00 28.3 14 Sur 25 Sur 0 -- -- 27
2017-09-20 13:00:00 27.5 8 Sudeste 20 Sudeste 0 -- -- 29
2017-09-20 12:00:00 25.8 11 Sudeste 20 Este 0 -- -- 32
2017-09-20 11:00:00 23.8 12 Este 19 Este 0 -- -- 35
2017-09-20 10:00:00 21.8 8 Este 10 Este 0 -- -- 40
2017-09-20 09:00:00 18 7 Sudeste 9 Sudeste 0 -- -- 53
2017-09-20 08:00:00 17.1 7 Sudeste 9 Sudeste 0 -- -- 50
2017-09-20 07:00:00 17.7 4 Sur 4 Sur 0 -- -- 45
2017-09-20 06:00:00 17.7 3 Sur 4 Sudeste 0 -- -- 43
2017-09-20 05:00:00 18.3 3 Noroeste 4 Noroeste 0 -- -- 42
2017-09-20 04:00:00 18.2 3 Nordeste 11 Noroeste 0 -- -- 42
2017-09-20 03:00:00 19.5 3 Este 5 Sudeste 0 -- -- 40
2017-09-20 02:00:00 19.8 3 Este 12 Sudeste 0 -- -- 38
2017-09-20 01:00:00 19.2 8 Sudeste 14 Sudeste 0 -- -- 39
2017-09-20 00:00:00 20.3 5 Oeste 6 Oeste 0 -- -- 38
2017-09-19 23:00:00 20.4 0 Calma 12 Norte 0 -- -- 38
2017-09-19 22:00:00 21.1 10 Norte 19 Norte 0 -- -- 37
2017-09-19 21:00:00 23.3 16 Norte 22 Norte 0 -- -- 34
2017-09-19 20:00:00 26.3 14 Norte 19 Norte 0 -- -- 29
2017-09-19 19:00:00 28.1 11 Noroeste 24 Norte 0 -- -- 25
2017-09-19 18:00:00 28.4 7 Oeste 20 Oeste 0 -- -- 24
2017-09-19 17:00:00 27.9 10 Norte 21 Noroeste 0 -- -- 26
2017-09-19 16:00:00 27.2 10 Noroeste 19 Norte 0 -- -- 26
2017-09-19 15:00:00 26 10 Noroeste 18 Oeste 0 -- -- 29
2017-09-19 14:00:00 25.3 8 Oeste 16 Noroeste 0 -- -- 33
2017-09-19 13:00:00 23.7 6 Norte 13 Nordeste 0 -- -- 37
2017-09-19 12:00:00 21.7 3 Nordeste 9 Nordeste 0 -- -- 47
2017-09-19 11:00:00 18.2 3 Noroeste 6 Noroeste 0 -- -- 59
2017-09-19 10:00:00 16.4 0 Calma 4 Oeste 0 -- -- 66
2017-09-19 09:00:00 14.3 3 Oeste 5 Sudoeste 0 -- -- 73
2017-09-19 08:00:00 14 3 Sudoeste 6 Sudoeste 0 -- -- 75
2017-09-19 07:00:00 13.7 4 Sudoeste 6 Sudoeste 0 -- -- 75
2017-09-19 06:00:00 14 5 Sudoeste 7 Sudoeste 0 -- -- 73
2017-09-19 05:00:00 14.2 4 Sudoeste 8 Sudoeste 0 -- -- 71
2017-09-19 04:00:00 14.4 5 Sudoeste 8 Oeste 0 -- -- 68
2017-09-19 03:00:00 14.8 7 Oeste 11 Oeste 0 -- -- 65
2017-09-19 02:00:00 15 8 Oeste 11 Noroeste 0 -- -- 59
2017-09-19 01:00:00 15.9 6 Noroeste 14 Noroeste 0 -- -- 55
2017-09-19 00:00:00 17.1 8 Oeste 13 Noroeste 0 -- -- 49
2017-09-18 23:00:00 17.9 8 Noroeste 11 Oeste 0 -- -- 47
2017-09-18 22:00:00 18.3 9 Noroeste 22 Noroeste 0 -- -- 46
2017-09-18 21:00:00 19.8 17 Noroeste 29 Noroeste 0 -- -- 41
2017-09-18 20:00:00 22.3 22 Noroeste 33 Noroeste 0 -- -- 37
2017-09-18 19:00:00 23.5 26 Noroeste 40 Oeste 0 -- -- 35
2017-09-18 18:00:00 24.3 28 Noroeste 43 Oeste 0 -- -- 38
2017-09-18 17:00:00 24.7 25 Oeste 44 Oeste 0 -- -- 43
2017-09-18 16:00:00 24.4 23 Oeste 40 Oeste 0 -- -- 44
2017-09-18 15:00:00 23.7 20 Oeste 35 Oeste 0 -- -- 48
2017-09-18 14:00:00 22.2 18 Noroeste 28 Oeste 0 -- -- 45
2017-09-18 13:00:00 20.3 11 Noroeste 26 Noroeste 0 -- -- 46
2017-09-18 12:00:00 18 15 Noroeste 21 Noroeste 0 -- -- 49
2017-09-18 11:00:00 14.7 10 Oeste 15 Oeste 0 -- -- 59
2017-09-18 10:00:00 11.6 12 Oeste 19 Oeste 0 -- -- 73
2017-09-18 09:00:00 8.9 12 Oeste 16 Oeste 0 -- -- 79
2017-09-18 08:00:00 8.6 15 Sudoeste 19 Oeste 0 -- -- 77
2017-09-18 07:00:00 9.3 14 Oeste 17 Oeste 0 -- -- 71
2017-09-18 06:00:00 10.6 7 Sudoeste 15 Sudoeste 0 -- -- 63
2017-09-18 05:00:00 11.6 10 Sudoeste 13 Sudoeste 0 -- -- 57
2017-09-18 04:00:00 12.4 8 Oeste 14 Sudoeste 0 -- -- 55
2017-09-18 03:00:00 12.9 9 Sudoeste 14 Oeste 0 -- -- 47
2017-09-18 02:00:00 13.9 9 Oeste 15 Oeste 0 -- -- 41
2017-09-18 01:00:00 15.7 9 Oeste 12 Oeste 0 -- -- 35
2017-09-18 00:00:00 16.6 5 Oeste 12 Oeste 0 -- -- 31
2017-09-17 23:00:00 17.3 5 Oeste 15 Oeste 0 -- -- 28
2017-09-17 22:00:00 18.7 14 Oeste 18 Oeste 0 -- -- 24
2017-09-17 21:00:00 20.2 14 Oeste 28 Oeste 0 -- -- 24
2017-09-17 20:00:00 22.9 24 Noroeste 34 Oeste 0 -- -- 24
2017-09-17 19:00:00 24.5 25 Noroeste 35 Noroeste 0 -- -- 24
2017-09-17 18:00:00 25.9 18 Oeste 30 Noroeste 0 -- -- 22
2017-09-17 17:00:00 26 16 Oeste 31 Oeste 0 -- -- 21
2017-09-17 16:00:00 25.8 14 Oeste 31 Oeste 0 -- -- 21
2017-09-17 15:00:00 25.1 16 Oeste 28 Oeste 0 -- -- 22
2017-09-17 14:00:00 24.1 17 Oeste 29 Oeste 0 -- -- 25
2017-09-17 13:00:00 23.3 5 Este 19 Oeste 0 -- -- 26
2017-09-17 12:00:00 21.2 4 Noroeste 10 Noroeste 0 -- -- 28
2017-09-17 11:00:00 18 3 Oeste 5 Oeste 0 -- -- 36
2017-09-17 10:00:00 14.9 2 Noroeste 4 Noroeste 0 -- -- 43
2017-09-17 09:00:00 13.1 3 Noroeste 4 Noroeste 0 -- -- 46
2017-09-17 08:00:00 12.7 3 Oeste 5 Sudoeste 0 -- -- 48
2017-09-17 07:00:00 13.1 4 Sudoeste 5 Oeste 0 -- -- 47
2017-09-17 06:00:00 12.8 4 Sudoeste 6 Sudoeste 0 -- -- 45
2017-09-17 05:00:00 13.2 3 Sudoeste 7 Oeste 0 -- -- 43
2017-09-17 04:00:00 13.2 5 Sur 8 Oeste 0 -- -- 41
2017-09-17 03:00:00 14.4 5 Sudoeste 9 Sudoeste 0 -- -- 38
2017-09-17 02:00:00 14.9 3 Nordeste 17 Noroeste 0 -- -- 36
2017-09-17 01:00:00 16.5 4 Sur 8 Sudoeste 0 -- -- 34
2017-09-17 00:00:00 17 4 Sudoeste 6 Oeste 0 -- -- 34
2017-09-16 23:00:00 17.4 2 Oeste 13 Norte 0 -- -- 33
2017-09-16 22:00:00 17.9 10 Norte 17 Norte 0 -- -- 32
2017-09-16 21:00:00 19.7 15 Norte 22 Noroeste 0 -- -- 30
2017-09-16 20:00:00 22.4 16 Norte 27 Noroeste 0 -- -- 27
2017-09-16 19:00:00 23.6 15 Noroeste 24 Norte 0 -- -- 27
2017-09-16 18:00:00 23.8 18 Noroeste 31 Noroeste 0 -- -- 26
2017-09-16 17:00:00 23.8 10 Oeste 26 Norte 0 -- -- 27
2017-09-16 16:00:00 23 8 Norte 26 Noroeste 0 -- -- 27
2017-09-16 15:00:00 21.8 8 Norte 19 Noroeste 0 -- -- 29
2017-09-16 14:00:00 20.7 10 Noroeste 23 Noroeste 0 -- -- 33
2017-09-16 13:00:00 19.2 9 Noroeste 19 Oeste 0 -- -- 36
2017-09-16 12:00:00 16.7 7 Oeste 17 Oeste 0 -- -- 45
2017-09-16 11:00:00 14.3 10 Oeste 17 Noroeste 0 -- -- 52
2017-09-16 10:00:00 11.7 10 Oeste 14 Oeste 0 -- -- 64
2017-09-16 09:00:00 9.3 8 Sudoeste 10 Sudoeste 0 -- -- 70
2017-09-16 08:00:00 8.9 9 Oeste 10 Oeste 0 -- -- 72
2017-09-16 07:00:00 9.2 8 Oeste 13 Oeste 0 -- -- 71
2017-09-16 06:00:00 9.8 9 Oeste 12 Oeste 0 -- -- 69
2017-09-16 05:00:00 10 10 Sudoeste 12 Sudoeste 0 -- -- 68
2017-09-16 04:00:00 10.9 10 Sudoeste 17 Sudoeste 0 -- -- 64
2017-09-16 03:00:00 11.8 9 Sudoeste 17 Oeste 0 -- -- 61
2017-09-16 02:00:00 12.6 14 Oeste 20 Oeste 0 -- -- 58
2017-09-16 01:00:00 13.5 13 Oeste 24 Noroeste 0 -- -- 52
2017-09-16 00:00:00 15.1 20 Noroeste 33 Noroeste 0 -- -- 45
2017-09-15 23:00:00 16.3 18 Noroeste 26 Noroeste 0 -- -- 30
2017-09-15 22:00:00 17.3 18 Noroeste 23 Noroeste 0 -- -- 28
2017-09-15 21:00:00 19 20 Noroeste 31 Noroeste 0 -- -- 26
2017-09-15 20:00:00 21.6 26 Noroeste 35 Noroeste 0 -- -- 22
2017-09-15 19:00:00 23.3 24 Noroeste 35 Noroeste 0 -- -- 22
2017-09-15 18:00:00 23.9 25 Noroeste 41 Noroeste 0 -- -- 24
2017-09-15 17:00:00 23.5 23 Noroeste 43 Noroeste 0 -- -- 23
2017-09-15 16:00:00 23.3 24 Noroeste 37 Noroeste 0 -- -- 24
2017-09-15 15:00:00 23 23 Noroeste 36 Noroeste 0 -- -- 26
2017-09-15 14:00:00 20.9 19 Noroeste 32 Noroeste 0 -- -- 36
2017-09-15 13:00:00 18.5 17 Noroeste 29 Noroeste 0 -- -- 44
2017-09-15 12:00:00 17.3 18 Noroeste 24 Noroeste 0 -- -- 48
2017-09-15 11:00:00 15.2 15 Oeste 24 Oeste 0 -- -- 57
2017-09-15 10:00:00 12.4 10 Oeste 13 Oeste 0 -- -- 71
2017-09-15 09:00:00 10.1 6 Sudoeste 15 Oeste 0 -- -- 76
2017-09-15 08:00:00 9.8 14 Oeste 20 Oeste 0 -- -- 79
2017-09-15 07:00:00 10.4 16 Oeste 19 Oeste 0 -- -- 71
2017-09-15 06:00:00 11.5 14 Oeste 23 Oeste 0 -- -- 58
2017-09-15 05:00:00 13.3 15 Oeste 28 Oeste 0 -- -- 46
2017-09-15 04:00:00 15.2 17 Sudoeste 22 Sudoeste 0 -- -- 40
2017-09-15 03:00:00 16.4 8 Sudoeste 12 Sudoeste 0 -- -- 48
2017-09-15 02:00:00 17.9 9 Noroeste 18 Oeste 0 -- -- 38
2017-09-15 01:00:00 19.2 14 Oeste 19 Oeste 0 -- -- 54
2017-09-15 00:00:00 20.8 11 Oeste 15 Oeste 0 -- -- 38
2017-09-14 23:00:00 22.1 8 Sudoeste 17 Oeste 0 -- -- 31
2017-09-14 22:00:00 23 13 Oeste 17 Noroeste 0 -- -- 29
2017-09-14 21:00:00 24.6 15 Noroeste 27 Noroeste 0 -- -- 28
2017-09-14 20:00:00 27.3 22 Noroeste 30 Noroeste 0 -- -- 27
2017-09-14 19:00:00 29.3 18 Noroeste 30 Noroeste 0 -- -- 22
2017-09-14 18:00:00 29.7 20 Norte 31 Noroeste 0 -- -- 25
2017-09-14 17:00:00 28.7 13 Noroeste 27 Noroeste 0 -- -- 25
2017-09-14 16:00:00 28.5 12 Oeste 27 Oeste 0 -- -- 26
2017-09-14 15:00:00 28 17 Oeste 29 Oeste 0 -- -- 27
2017-09-14 14:00:00 26.9 20 Noroeste 30 Oeste 0 -- -- 26
2017-09-14 13:00:00 25.2 20 Noroeste 27 Oeste 0 -- -- 32
2017-09-14 12:00:00 23.4 19 Noroeste 26 Noroeste 0 -- -- 44
2017-09-14 11:00:00 21.1 13 Noroeste 21 Noroeste 0 -- -- 50
2017-09-14 10:00:00 21 4 Oeste 8 Oeste 0 -- -- 49
2017-09-14 09:00:00 19.5 4 Sudoeste 10 Sudoeste 0 -- -- 53
2017-09-14 08:00:00 17.8 7 Sur 9 Sur 0 -- -- 59
2017-09-14 07:00:00 18.6 6 Sur 8 Sudoeste 0 -- -- 58
2017-09-14 06:00:00 19 6 Sudoeste 9 Sudoeste 0 -- -- 56
2017-09-14 05:00:00 19.5 8 Sudoeste 9 Sudoeste 0 -- -- 54
2017-09-14 04:00:00 19.6 7 Sudoeste 10 Sudoeste 0 -- -- 52
2017-09-14 03:00:00 20 8 Sudoeste 16 Oeste 0 -- -- 50
2017-09-14 02:00:00 20.9 15 Oeste 20 Sudoeste 0 -- -- 46
2017-09-14 01:00:00 22.2 12 Oeste 18 Oeste 0 -- -- 41
2017-09-14 00:00:00 23.3 9 Sudoeste 15 Sudoeste 0 -- -- 37
2017-09-13 23:00:00 24.7 8 Sudoeste 13 Sudoeste 0 -- -- 28
2017-09-13 22:00:00 25.7 8 Noroeste 13 Oeste 0 -- -- 27
2017-09-13 21:00:00 27.3 12 Oeste 27 Noroeste 0 -- -- 25
2017-09-13 20:00:00 30.8 20 Noroeste 31 Noroeste 0 -- -- 22
2017-09-13 19:00:00 32.3 21 Oeste 33 Oeste 0 -- -- 20
2017-09-13 18:00:00 33.2 19 Noroeste 34 Noroeste 0 -- -- 19
2017-09-13 17:00:00 33.5 23 Oeste 37 Oeste 0 -- -- 19
2017-09-13 16:00:00 33.3 19 Oeste 32 Norte 0 -- -- 20
2017-09-13 15:00:00 32.2 10 Oeste 29 Oeste 0 -- -- 21
2017-09-13 14:00:00 31.7 15 Oeste 30 Sudoeste 0 -- -- 22
2017-09-13 13:00:00 29.8 5 Noroeste 17 Sur 0 -- -- 27
2017-09-13 12:00:00 28.6 6 Sudeste 15 Sudeste 0 -- -- 29
2017-09-13 11:00:00 26 8 Este 13 Sudeste 0 -- -- 36
2017-09-13 10:00:00 22 6 Este 13 Este 0 -- -- 45
2017-09-13 09:00:00 20.3 7 Sudeste 11 Sudeste 0 -- -- 47
2017-09-13 08:00:00 18.9 0 Calma 4 Sur 0 -- -- 49
2017-09-13 07:00:00 19.3 2 Noroeste 3 Norte 0 -- -- 48
2017-09-13 06:00:00 19.4 2 Sudoeste 8 Sudeste 0 -- -- 48
2017-09-13 05:00:00 19.3 3 Oeste 6 Sudeste 0 -- -- 47
2017-09-13 04:00:00 20.4 4 Sudoeste 5 Sudoeste 0 -- -- 44
2017-09-13 03:00:00 20.7 4 Sur 10 Norte 0 -- -- 43
2017-09-13 02:00:00 21.2 9 Nordeste 12 Nordeste 0 -- -- 42
2017-09-13 01:00:00 21.7 7 Nordeste 15 Norte 0 -- -- 40
2017-09-13 00:00:00 22 3 Noroeste 17 Norte 0 -- -- 38
2017-09-12 23:00:00 22.9 13 Norte 23 Noroeste 0 -- -- 35
2017-09-12 22:00:00 24 17 Norte 22 Norte 0 -- -- 32
2017-09-12 21:00:00 25.5 17 Noroeste 20 Noroeste 0 -- -- 29
2017-09-12 20:00:00 28.4 19 Noroeste 27 Noroeste 0 -- -- 25
2017-09-12 19:00:00 29.4 18 Noroeste 33 Noroeste 0 -- -- 22
2017-09-12 18:00:00 29.7 22 Noroeste 33 Noroeste 0 -- -- 21
2017-09-12 17:00:00 30 23 Noroeste 33 Noroeste 0 -- -- 21
2017-09-12 16:00:00 28.9 21 Noroeste 41 Norte 0 -- -- 24
2017-09-12 15:00:00 28.5 22 Norte 35 Noroeste 0 -- -- 27
2017-09-12 14:00:00 27.4 21 Noroeste 30 Noroeste 0 -- -- 29
2017-09-12 13:00:00 26.2 19 Norte 30 Noroeste 0 -- -- 33
2017-09-12 12:00:00 24.5 18 Norte 25 Norte 0 -- -- 39
2017-09-12 11:00:00 21.5 13 Noroeste 19 Noroeste 0 -- -- 46
2017-09-12 10:00:00 18.8 5 Oeste 9 Noroeste 0 -- -- 52
2017-09-12 09:00:00 16.9 4 Oeste 9 Noroeste 0 -- -- 57
2017-09-12 08:00:00 16.2 5 Noroeste 9 Noroeste 0 -- -- 59
2017-09-12 07:00:00 16.6 5 Oeste 12 Noroeste 0 -- -- 58
2017-09-12 06:00:00 16.8 4 Noroeste 21 Noroeste 0 -- -- 58
2017-09-12 05:00:00 16.8 12 Noroeste 17 Noroeste 0 -- -- 58
2017-09-12 04:00:00 18.2 14 Noroeste 22 Noroeste 0 -- -- 53
2017-09-12 03:00:00 19.6 15 Noroeste 26 Noroeste 0 -- -- 49
2017-09-12 02:00:00 20.4 18 Noroeste 22 Noroeste 0 -- -- 46
2017-09-12 01:00:00 21.9 15 Noroeste 24 Noroeste 0 -- -- 43
2017-09-12 00:00:00 23.2 18 Noroeste 26 Noroeste 0 -- -- 40
2017-09-11 23:00:00 24.3 21 Noroeste 27 Noroeste 0 -- -- 38
2017-09-11 22:00:00 25.7 16 Noroeste 21 Noroeste 0 -- -- 34
2017-09-11 21:00:00 27 17 Noroeste 27 Norte 0 -- -- 31
2017-09-11 20:00:00 29.6 22 Noroeste 33 Norte 0 -- -- 27
2017-09-11 19:00:00 30.9 20 Noroeste 34 Noroeste 0 -- -- 24
2017-09-11 18:00:00 31.1 18 Norte 32 Norte 0 -- -- 23
2017-09-11 17:00:00 31.1 18 Noroeste 32 Noroeste 0 -- -- 21
2017-09-11 16:00:00 30.4 12 Norte 27 Noroeste 0 -- -- 24
2017-09-11 15:00:00 29.7 13 Norte 31 Norte 0 -- -- 30
2017-09-11 14:00:00 28.4 9 Norte 23 Norte 0 -- -- 33
2017-09-11 13:00:00 26.6 7 Oeste 15 Noroeste 0 -- -- 30
2017-09-11 12:00:00 24.5 6 Noroeste 15 Oeste 0 -- -- 32
2017-09-11 11:00:00 21.7 4 Noroeste 9 Oeste 0 -- -- 36
2017-09-11 10:00:00 19.4 4 Sudoeste 6 Sudoeste 0 -- -- 39
2017-09-11 09:00:00 17.2 3 Sur 7 Sur 0 -- -- 41
2017-09-11 08:00:00 16.8 3 Sudoeste 7 Sudeste 0 -- -- 42
2017-09-11 07:00:00 16.2 3 Sur 12 Norte 0 -- -- 41
2017-09-11 06:00:00 17.2 6 Noroeste 9 Noroeste 0 -- -- 39
2017-09-11 05:00:00 16.5 6 Sudoeste 14 Norte 0 -- -- 36
2017-09-11 04:00:00 17.2 5 Noroeste 7 Noroeste 0 -- -- 33
2017-09-11 03:00:00 16.8 7 Norte 21 Noroeste 0 -- -- 32
2017-09-11 02:00:00 18.8 4 Sur 9 Norte 0 -- -- 28
2017-09-11 01:00:00 19.6 9 Norte 11 Norte 0 -- -- 27
2017-09-11 00:00:00 19.2 8 Noroeste 14 Norte 0 -- -- 28
2017-09-10 23:00:00 19.5 12 Norte 18 Noroeste 0 -- -- 29
2017-09-10 22:00:00 20.7 10 Noroeste 19 Norte 0 -- -- 28
2017-09-10 21:00:00 22 14 Noroeste 21 Noroeste 0 -- -- 27
2017-09-10 20:00:00 24.2 18 Noroeste 33 Noroeste 0 -- -- 24
2017-09-10 19:00:00 24.7 20 Noroeste 31 Noroeste 0 -- -- 24
2017-09-10 18:00:00 24.7 14 Noroeste 27 Noroeste 0 -- -- 24
2017-09-10 17:00:00 24.6 12 Noroeste 27 Noroeste 0 -- -- 23
2017-09-10 16:00:00 23.3 13 Noroeste 29 Noroeste 0 -- -- 26
2017-09-10 15:00:00 22.9 10 Norte 25 Norte 0 -- -- 30
2017-09-10 14:00:00 21.2 10 Noroeste 18 Norte 0 -- -- 34
2017-09-10 13:00:00 19.5 10 Norte 22 Noroeste 0 -- -- 39
2017-09-10 12:00:00 17.5 10 Norte 18 Norte 0 -- -- 47
2017-09-10 11:00:00 15.2 12 Noroeste 24 Noroeste 0 -- -- 58
2017-09-10 10:00:00 12.4 12 Noroeste 15 Noroeste 0 -- -- 72
2017-09-10 09:00:00 10.2 5 Sudoeste 14 Oeste 0 -- -- 80
2017-09-10 08:00:00 9.3 7 Oeste 19 Oeste 0 -- -- 83
2017-09-10 07:00:00 10 12 Oeste 17 Oeste 0 -- -- 80
2017-09-10 06:00:00 10.7 10 Oeste 13 Oeste 0 -- -- 77
2017-09-10 05:00:00 10.9 6 Oeste 13 Oeste 0 -- -- 75
2017-09-10 04:00:00 11.5 8 Sudoeste 19 Oeste 0 -- -- 72
2017-09-10 03:00:00 12.3 12 Oeste 20 Oeste 0 -- -- 69
2017-09-10 02:00:00 13 10 Oeste 26 Oeste 0 -- -- 65
2017-09-10 01:00:00 14.3 19 Oeste 33 Noroeste 0 -- -- 61
2017-09-10 00:00:00 15.3 21 Noroeste 34 Noroeste 0 -- -- 56
2017-09-09 23:00:00 16.3 28 Noroeste 41 Noroeste 0 -- -- 53
2017-09-09 22:00:00 17.4 32 Noroeste 46 Noroeste 0 -- -- 50
2017-09-09 21:00:00 19 31 Noroeste 44 Noroeste 0 -- -- 46
2017-09-09 20:00:00 21.3 36 Noroeste 50 Oeste 0 -- -- 41
2017-09-09 19:00:00 23.4 38 Oeste 54 Noroeste 0 -- -- 39
2017-09-09 18:00:00 24.5 40 Noroeste 52 Noroeste 0 -- -- 38
2017-09-09 17:00:00 24.9 38 Oeste 55 Oeste 0 -- -- 39
2017-09-09 16:00:00 24.9 36 Noroeste 49 Oeste 0 -- -- 39
2017-09-09 15:00:00 24.2 33 Noroeste 43 Noroeste 0 -- -- 44
2017-09-09 14:00:00 21.7 23 Oeste 37 Oeste 0 -- -- 53
2017-09-09 13:00:00 20 21 Noroeste 33 Oeste 0 -- -- 56
2017-09-09 12:00:00 17.7 22 Noroeste 31 Oeste 0 -- -- 66
2017-09-09 11:00:00 16.3 20 Noroeste 30 Noroeste 0 -- -- 72
2017-09-09 10:00:00 14.3 21 Oeste 26 Oeste 0 -- -- 82
2017-09-09 09:00:00 13.2 20 Oeste 29 Oeste 0 -- -- 87
2017-09-09 08:00:00 11.4 19 Oeste 21 Oeste 0 -- -- 85
2017-09-09 07:00:00 11.4 17 Oeste 20 Oeste 0 -- -- 79
2017-09-09 06:00:00 11.8 13 Sudoeste 22 Oeste 0 -- -- 62
2017-09-09 05:00:00 13.3 17 Oeste 23 Oeste 0 -- -- 51
2017-09-09 04:00:00 14.8 12 Sudoeste 20 Oeste 0 -- -- 40
2017-09-09 03:00:00 15.7 17 Oeste 20 Oeste 0 -- -- 36
2017-09-09 02:00:00 17.5 12 Oeste 18 Oeste 0 -- -- 33
2017-09-09 01:00:00 19.2 10 Oeste 17 Oeste 0 -- -- 31
2017-09-09 00:00:00 20.4 17 Oeste 21 Oeste 0 -- -- 28
2017-09-08 23:00:00 22.6 18 Noroeste 29 Oeste 0 -- -- 25
2017-09-08 22:00:00 25.3 22 Oeste 29 Noroeste 0 -- -- 18
2017-09-08 21:00:00 27.5 20 Oeste 29 Oeste 0 -- -- 16
2017-09-08 20:00:00 30.5 22 Oeste 32 Oeste 0 -- -- 13
2017-09-08 19:00:00 32.2 22 Oeste 38 Oeste 0 -- -- 12
2017-09-08 18:00:00 33.2 24 Oeste 38 Oeste 0 -- -- 11
2017-09-08 17:00:00 33.4 19 Noroeste 33 Oeste 0 -- -- 11
2017-09-08 16:00:00 33.1 19 Noroeste 37 Oeste 0 -- -- 11
2017-09-08 15:00:00 32.5 17 Oeste 36 Oeste 0 -- -- 11
2017-09-08 14:00:00 31.8 18 Oeste 27 Oeste 0 -- -- 11
2017-09-08 13:00:00 30.8 12 Oeste 21 Oeste 0 -- -- 13
2017-09-08 12:00:00 29.4 8 Noroeste 13 Noroeste 0 -- -- 14
2017-09-08 11:00:00 27.5 5 Oeste 8 Oeste 0 -- -- 18
2017-09-08 10:00:00 25.3 5 Sur 6 Sur 0 -- -- 20
2017-09-08 09:00:00 22.9 4 Sudoeste 8 Sudoeste 0 -- -- 22
2017-09-08 08:00:00 22.1 2 Sudoeste -- -- 0 -- -- 23
2017-09-08 07:00:00 22.5 5 Oeste 8 Sudoeste 0 -- -- 23
2017-09-08 06:00:00 22.3 5 Sudoeste 7 Sudoeste 0 -- -- 23
2017-09-08 05:00:00 22.4 4 Sudoeste 9 Oeste 0 -- -- 24
2017-09-08 04:00:00 22.8 4 Oeste 6 Oeste 0 -- -- 24
2017-09-08 03:00:00 23.7 6 Noroeste 8 Noroeste 0 -- -- 23
2017-09-08 02:00:00 24.4 3 Sudoeste 8 Norte 0 -- -- 22
2017-09-08 01:00:00 24.4 3 Noroeste 18 Noroeste 0 -- -- 24
2017-09-08 00:00:00 24.5 8 Noroeste 20 Noroeste 0 -- -- 24
2017-09-07 23:00:00 26.2 14 Noroeste 21 Noroeste 0 -- -- 26
2017-09-07 22:00:00 27.3 13 Noroeste 16 Norte 0 -- -- 22
2017-09-07 21:00:00 28.7 15 Noroeste 26 Norte 0 -- -- 20
2017-09-07 20:00:00 31.6 20 Norte 31 Noroeste 0 -- -- 18
2017-09-07 19:00:00 33.1 18 Norte 30 Noroeste 0 -- -- 18
2017-09-07 18:00:00 33.7 17 Oeste 29 Oeste 0 -- -- 17
2017-09-07 17:00:00 33.8 17 Noroeste 33 Oeste 0 -- -- 17
2017-09-07 16:00:00 33.8 19 Noroeste 30 Noroeste 0 -- -- 20
2017-09-07 15:00:00 33.4 20 Oeste 37 Oeste 0 -- -- 21
2017-09-07 14:00:00 32.3 11 Oeste 30 Oeste 0 -- -- 24
2017-09-07 13:00:00 31.1 10 Norte 18 Norte 0 -- -- 24
2017-09-07 12:00:00 29.2 4 Oeste 8 Oeste 0 -- -- 32
2017-09-07 11:00:00 26.4 3 Noroeste 7 Norte 0 -- -- 39
2017-09-07 10:00:00 24.4 4 Norte 9 Norte 0 -- -- 43
2017-09-07 09:00:00 23.3 0 Calma 6 Oeste 0 -- -- 45
2017-09-07 08:00:00 22.3 4 Oeste 8 Oeste 0 -- -- 47
2017-09-07 07:00:00 22.4 6 Oeste 8 Sudoeste 0 -- -- 46
2017-09-07 06:00:00 22.8 6 Sudoeste 9 Sudoeste 0 -- -- 45
2017-09-07 05:00:00 23.1 4 Sur 6 Sudoeste 0 -- -- 44
2017-09-07 04:00:00 23.2 4 Sudoeste 9 Oeste 0 -- -- 43
2017-09-07 03:00:00 24.2 6 Sudoeste 9 Sudoeste 0 -- -- 40
2017-09-07 02:00:00 24.5 8 Sudoeste 14 Oeste 0 -- -- 37
2017-09-07 01:00:00 25 11 Oeste 14 Sudoeste 0 -- -- 35
2017-09-07 00:00:00 26.2 8 Sur 9 Sur 0 -- -- 35
2017-09-06 23:00:00 27.3 8 Oeste 16 Noroeste 0 -- -- 30
2017-09-06 22:00:00 28.1 16 Noroeste 22 Noroeste 0 -- -- 30
2017-09-06 21:00:00 30.1 17 Noroeste 27 Noroeste 0 -- -- 30
2017-09-06 20:00:00 32.6 23 Noroeste 30 Noroeste 0 -- -- 29
2017-09-06 19:00:00 34.2 15 Noroeste 27 Oeste 0 -- -- 27
2017-09-06 18:00:00 34.6 15 Oeste 28 Noroeste 0 -- -- 23
2017-09-06 17:00:00 34.5 10 Norte 26 Noroeste 0 -- -- 25
2017-09-06 16:00:00 34 17 Noroeste 31 Noroeste 0 -- -- 25
2017-09-06 15:00:00 33.2 15 Noroeste 29 Noroeste 0 -- -- 27
2017-09-06 14:00:00 32.4 11 Noroeste 22 Oeste 0 -- -- 29
2017-09-06 13:00:00 31.5 5 Noroeste 15 Sudoeste 0 -- -- 32
2017-09-06 12:00:00 30.4 6 Norte 13 Este 0 -- -- 34
2017-09-06 11:00:00 28.8 3 Nordeste 6 Nordeste 0 -- -- 39
2017-09-06 10:00:00 25.9 3 Sur 5 Sur 0 -- -- 45
2017-09-06 09:00:00 23.8 3 Sudoeste 4 Oeste 0 -- -- 51
2017-09-06 08:00:00 22.8 3 Sur 7 Sudoeste 0 -- -- 54
2017-09-06 07:00:00 22.2 4 Sudoeste 9 Sudoeste 0 -- -- 56
2017-09-06 06:00:00 21.8 6 Sudoeste 9 Sudoeste 0 -- -- 56
2017-09-06 05:00:00 21.8 4 Sudoeste 8 Oeste 0 -- -- 56
2017-09-06 04:00:00 22.4 6 Oeste 8 Sudoeste 0 -- -- 54
2017-09-06 03:00:00 22.4 5 Sudoeste 9 Sudoeste 0 -- -- 54
2017-09-06 02:00:00 23.1 7 Oeste 13 Sudoeste 0 -- -- 51
2017-09-06 01:00:00 23.8 10 Oeste 14 Oeste 0 -- -- 50
2017-09-06 00:00:00 24.8 9 Oeste 11 Oeste 0 -- -- 48
2017-09-05 23:00:00 25.7 10 Oeste 16 Oeste 0 -- -- 47
2017-09-05 22:00:00 27 10 Oeste 22 Norte 0 -- -- 42
2017-09-05 21:00:00 29.2 17 Noroeste 30 Noroeste 0 -- -- 39
2017-09-05 20:00:00 32 20 Noroeste 29 Noroeste 0 -- -- 35
2017-09-05 19:00:00 33.6 13 Oeste 27 Noroeste 0 -- -- 30
2017-09-05 18:00:00 33.8 13 Norte 26 Noroeste 0 -- -- 29
2017-09-05 17:00:00 33.9 13 Sudoeste 24 Sudoeste 0 -- -- 29
2017-09-05 16:00:00 33.4 10 Sur 19 Este 0 -- -- 28
2017-09-05 15:00:00 32.5 12 Sudeste 27 Sur 0 -- -- 30
2017-09-05 14:00:00 31.4 5 Sudeste 21 Sudeste 0 -- -- 32
2017-09-05 13:00:00 30.4 9 Sudeste 24 Sudeste 0 -- -- 35
2017-09-05 12:00:00 28.2 11 Este 20 Nordeste 0 -- -- 41
2017-09-05 11:00:00 24.5 4 Nordeste 9 Nordeste 0 -- -- 53
2017-09-05 10:00:00 20.8 0 Calma 5 Sur 0 -- -- 67
2017-09-05 09:00:00 18.3 3 Oeste 5 Sudoeste 0 -- -- 76
2017-09-05 08:00:00 17.3 4 Sudoeste 6 Sudoeste 0 -- -- 79
2017-09-05 07:00:00 17.6 4 Sudoeste 6 Oeste 0 -- -- 78
2017-09-05 06:00:00 17.3 6 Sur 9 Sudoeste 0 -- -- 78
2017-09-05 05:00:00 17.8 8 Sudoeste 9 Sudoeste 0 -- -- 75
2017-09-05 04:00:00 17.9 6 Sudoeste 14 Oeste 0 -- -- 73
2017-09-05 03:00:00 19 11 Oeste 13 Oeste 0 -- -- 68
2017-09-05 02:00:00 20.3 6 Sudoeste 10 Sudoeste 0 -- -- 63
2017-09-05 01:00:00 21.2 7 Sudoeste 10 Sudoeste 0 -- -- 60
2017-09-05 00:00:00 21.8 8 Sudoeste 15 Sudoeste 0 -- -- 52
2017-09-04 23:00:00 23.1 6 Noroeste 13 Noroeste 0 -- -- 50
2017-09-04 22:00:00 24.1 13 Noroeste 22 Norte 0 -- -- 47
2017-09-04 21:00:00 26.1 17 Norte 28 Noroeste 0 -- -- 42
2017-09-04 20:00:00 28.4 19 Oeste 28 Noroeste 0 -- -- 38
2017-09-04 19:00:00 29 18 Oeste 33 Noroeste 0 -- -- 38
2017-09-04 18:00:00 29.8 21 Noroeste 37 Oeste 0 -- -- 37
2017-09-04 17:00:00 29.2 13 Oeste 32 Oeste 0 -- -- 39
2017-09-04 16:00:00 28.8 22 Noroeste 33 Oeste 0 -- -- 40
2017-09-04 15:00:00 27.1 16 Noroeste 31 Noroeste 0 -- -- 42
2017-09-04 14:00:00 25.7 20 Oeste 31 Noroeste 0 -- -- 45
2017-09-04 13:00:00 23.9 17 Noroeste 30 Noroeste 0 -- -- 51
2017-09-04 12:00:00 22.9 21 Noroeste 29 Noroeste 0 -- -- 53
2017-09-04 11:00:00 20.6 14 Noroeste 21 Noroeste 0 -- -- 57
2017-09-04 10:00:00 18.1 9 Oeste 14 Oeste 0 -- -- 61
2017-09-04 09:00:00 15.5 7 Oeste 10 Oeste 0 -- -- 65
2017-09-04 08:00:00 14.8 8 Sudoeste 11 Oeste 0 -- -- 61
2017-09-04 07:00:00 15.4 5 Oeste 12 Oeste 0 -- -- 56
2017-09-04 06:00:00 15.7 13 Oeste 14 Oeste 0 -- -- 48
2017-09-04 05:00:00 16.8 11 Sudoeste 13 Sudoeste 0 -- -- 42
2017-09-04 04:00:00 18 9 Oeste 15 Sudoeste 0 -- -- 39
2017-09-04 03:00:00 18.3 9 Sudoeste 14 Oeste 0 -- -- 32
2017-09-04 02:00:00 19.5 8 Sudoeste 19 Oeste 0 -- -- 30
2017-09-04 01:00:00 20.6 13 Oeste 18 Sudoeste 0 -- -- 28
2017-09-04 00:00:00 21.5 16 Oeste 18 Sudoeste 0 -- -- 28
2017-09-03 23:00:00 23.2 12 Oeste 16 Oeste 0 -- -- 29
2017-09-03 22:00:00 24.8 11 Oeste 25 Oeste 0 -- -- 29
2017-09-03 21:00:00 27.5 18 Oeste 32 Oeste 0 -- -- 27
2017-09-03 20:00:00 30.2 18 Oeste 32 Noroeste 0 -- -- 21
2017-09-03 19:00:00 31.1 19 Oeste 32 Oeste 0 -- -- 21
2017-09-03 18:00:00 31.7 23 Oeste 37 Oeste 0 -- -- 21
2017-09-03 17:00:00 31.3 23 Oeste 36 Noroeste 0 -- -- 23
2017-09-03 16:00:00 31.4 15 Oeste 30 Oeste 0 -- -- 24
2017-09-03 15:00:00 31.2 13 Sudoeste 28 Oeste 0 -- -- 24
2017-09-03 14:00:00 30.7 10 Noroeste 21 Oeste 0 -- -- 26
2017-09-03 13:00:00 29.2 7 Noroeste 15 Oeste 0 -- -- 31
2017-09-03 12:00:00 27.5 4 Oeste 9 Noroeste 0 -- -- 38
2017-09-03 11:00:00 25.5 4 Norte 8 Este 0 -- -- 43
2017-09-03 10:00:00 23 4 Norte 8 Este 0 -- -- 53
2017-09-03 09:00:00 21.3 7 Este 11 Sudeste 0 -- -- 54
2017-09-03 08:00:00 20.8 6 Sudeste 10 Sudeste 0 -- -- 55
2017-09-03 07:00:00 20.9 4 Sudeste 8 Sudeste 0 -- -- 58
2017-09-03 06:00:00 20.3 4 Sudoeste 7 Sur 0 -- -- 63
2017-09-03 05:00:00 20.4 5 Sudoeste 8 Sudoeste 0 -- -- 59
2017-09-03 04:00:00 20.5 6 Oeste 10 Oeste 0 -- -- 52
2017-09-03 03:00:00 21.3 8 Sudoeste 13 Sudoeste 0 -- -- 49
2017-09-03 02:00:00 22.6 9 Sur 13 Sudeste 0 -- -- 46
2017-09-03 01:00:00 23.6 9 Sudeste 15 Sudeste 0 -- -- 46
2017-09-03 00:00:00 24.4 7 Este 20 Nordeste 0 -- -- 43
2017-09-02 23:00:00 26.7 16 Nordeste 29 Nordeste 0 -- -- 35
2017-09-02 22:00:00 27.6 15 Noroeste 27 Norte 0 -- -- 35
2017-09-02 21:00:00 30.2 7 Sudoeste 12 Oeste 0 -- -- 32
2017-09-02 20:00:00 31.4 7 Oeste 20 Oeste 0 -- -- 32
2017-09-02 19:00:00 31.7 13 Oeste 26 Oeste 0 -- -- 32
2017-09-02 18:00:00 30.7 8 Oeste 17 Noroeste 0 -- -- 34
2017-09-02 17:00:00 30.7 8 Sur 20 Sur 0 -- -- 34
2017-09-02 16:00:00 31.1 5 Norte 24 Este 0 -- -- 34
2017-09-02 15:00:00 30.3 9 Sudeste 28 Sudeste 0 -- -- 38
2017-09-02 14:00:00 29.4 9 Sudeste 27 Este 0 -- -- 42
2017-09-02 13:00:00 28.2 16 Sudeste 26 Sudeste 0 -- -- 42
2017-09-02 12:00:00 26.4 13 Este 24 Este 0 -- -- 43
2017-09-02 11:00:00 24.6 15 Este 27 Este 0 -- -- 41
2017-09-02 10:00:00 22.4 20 Este 28 Nordeste 0 -- -- 39
2017-09-02 09:00:00 18.8 17 Nordeste 21 Nordeste 0 -- -- 45
2017-09-02 08:00:00 18.5 16 Este 22 Este 0 -- -- 43
2017-09-02 07:00:00 16.7 9 Nordeste 14 Nordeste 0 -- -- 45
2017-09-02 06:00:00 18.6 10 Norte 12 Nordeste 0 -- -- 40
2017-09-02 05:00:00 20 4 Norte 9 Noroeste 0 -- -- 36
2017-09-02 04:00:00 21.3 3 Noroeste 13 Sudeste 0 -- -- 33
2017-09-02 03:00:00 21.6 6 Nordeste 10 Nordeste 0 -- -- 32
2017-09-02 02:00:00 21.3 12 Nordeste 16 Nordeste 0 -- -- 33
2017-09-02 01:00:00 22 15 Nordeste 18 Nordeste 0 -- -- 32
2017-09-02 00:00:00 22.6 13 Nordeste 16 Nordeste 0 -- -- 34
2017-09-01 23:00:00 23.9 10 Nordeste 20 Nordeste 0 -- -- 33
2017-09-01 22:00:00 25.7 15 Norte 21 Norte 0 -- -- 32
2017-09-01 21:00:00 28 17 Norte 27 Norte 0 -- -- 29
2017-09-01 20:00:00 30.3 21 Norte 32 Norte 0 -- -- 23
2017-09-01 19:00:00 31.4 15 Norte 30 Noroeste 0 -- -- 25
2017-09-01 18:00:00 31.8 11 Norte 28 Nordeste 0 -- -- 25
2017-09-01 17:00:00 31.2 8 Oeste 31 Noroeste 0 -- -- 26
2017-09-01 16:00:00 31 19 Noroeste 28 Noroeste 0 -- -- 27
2017-09-01 15:00:00 30.5 5 Sur 28 Noroeste 0 -- -- 28
2017-09-01 14:00:00 30.2 11 Norte 25 Nordeste 0 -- -- 30
2017-09-01 13:00:00 29.2 12 Nordeste 24 Norte 0 -- -- 31
2017-09-01 12:00:00 28.4 16 Nordeste 26 Nordeste 0 -- -- 34
2017-09-01 11:00:00 26.1 11 Nordeste 15 Nordeste 0 -- -- 39
2017-09-01 10:00:00 23.3 2 Sur 6 Este 0 -- -- 47
2017-09-01 09:00:00 19.8 4 Sudeste 5 Sudeste 0 -- -- 58
2017-09-01 08:00:00 18.8 0 Calma 4 Sur 0 -- -- 62
2017-09-01 07:00:00 19.1 3 Sur 4 Sudeste 0 -- -- 55
2017-09-01 06:00:00 19.8 2 Oeste 6 Oeste 0 -- -- 51
2017-09-01 05:00:00 20.2 3 Oeste 8 Sudoeste 0 -- -- 50
2017-09-01 04:00:00 19.8 5 Sudoeste 12 Noroeste 0 -- -- 49
2017-09-01 03:00:00 21.6 6 Noroeste 10 Noroeste 0 -- -- 45
2017-09-01 02:00:00 22.4 3 Noroeste 5 Norte 0 -- -- 44
2017-09-01 01:00:00 22.5 4 Norte 9 Norte 0 -- -- 43
2017-09-01 00:00:00 22.9 5 Norte 18 Norte 0 -- -- 39
2017-08-31 23:00:00 23.3 15 Norte 21 Nordeste 0 -- -- 38
2017-08-31 22:00:00 24.4 16 Norte 21 Norte 0 -- -- 40
2017-08-31 21:00:00 26.7 14 Norte 24 Norte 0 -- -- 35
2017-08-31 20:00:00 29.1 14 Norte 28 Norte 0 -- -- 30
2017-08-31 19:00:00 29.8 12 Norte 31 Norte 0 -- -- 28
2017-08-31 18:00:00 30.1 9 Nordeste 27 Norte 0 -- -- 28
2017-08-31 17:00:00 29.8 9 Norte 33 Noroeste 0 -- -- 29
2017-08-31 16:00:00 29.1 10 Norte 25 Nordeste 0 -- -- 30
2017-08-31 15:00:00 28.8 9 Nordeste 24 Norte 0 -- -- 31
2017-08-31 14:00:00 27.8 6 Nordeste 21 Nordeste 0 -- -- 33
2017-08-31 13:00:00 26.6 8 Nordeste 23 Este 0 -- -- 37
2017-08-31 12:00:00 25.7 6 Este 18 Este 0 -- -- 40
2017-08-31 11:00:00 23.9 12 Nordeste 17 Este 0 -- -- 49
2017-08-31 10:00:00 21.1 4 Nordeste 8 Sudeste 0 -- -- 60
2017-08-31 09:00:00 18 5 Sudeste 12 Sudeste 0 -- -- 70
2017-08-31 08:00:00 17 2 Sudeste 13 Sudeste 0 -- -- 72
2017-08-31 07:00:00 16.5 5 Sur 8 Sudeste 0 -- -- 74
2017-08-31 06:00:00 17 5 Oeste 8 Sudeste 0 -- -- 70
2017-08-31 05:00:00 16.8 2 Oeste 4 Sur 0 -- -- 73
2017-08-31 04:00:00 16.9 5 Oeste 16 Norte 0 -- -- 74
2017-08-31 03:00:00 18.1 18 Norte 21 Norte 0 -- -- 67
2017-08-31 02:00:00 18.6 8 Noroeste 15 Noroeste 0 -- -- 52
2017-08-31 01:00:00 20.1 10 Sudeste 13 Este 0 -- -- 47
2017-08-31 00:00:00 20.1 2 Noroeste 15 Norte 0 -- -- 47
2017-08-30 23:00:00 21.1 12 Norte 14 Norte 0 -- -- 47
2017-08-30 22:00:00 21.9 6 Norte 11 Norte 0 -- -- 46
2017-08-30 21:00:00 23.9 7 Norte 15 Norte 0 -- -- 40
2017-08-30 20:00:00 25.4 8 Norte 16 Noroeste 0 -- -- 37
2017-08-30 19:00:00 25.6 10 Norte 25 Norte 0 -- -- 37
2017-08-30 18:00:00 25.7 12 Noroeste 24 Noroeste 0 -- -- 38
2017-08-30 17:00:00 25.9 13 Noroeste 22 Oeste 0 -- -- 36
2017-08-30 16:00:00 25 15 Noroeste 28 Noroeste 0 -- -- 40
2017-08-30 15:00:00 24.1 10 Oeste 20 Noroeste 0 -- -- 43
2017-08-30 14:00:00 23.2 6 Noroeste 17 Norte 0 -- -- 48
2017-08-30 13:00:00 22.5 5 Sur 14 Sudeste 0 -- -- 52
2017-08-30 12:00:00 20.2 3 Nordeste 9 Noroeste 0 -- -- 62
2017-08-30 11:00:00 19.2 5 Este 10 Nordeste 0 -- -- 70
2017-08-30 10:00:00 17 6 Este 15 Este 0 -- -- 82
2017-08-30 09:00:00 15.3 10 Este 14 Este 0 -- -- 84
2017-08-30 08:00:00 14.6 3 Sur 9 Sudeste 0 -- -- 85
2017-08-30 07:00:00 14.4 7 Sudeste 15 Sudeste 0 -- -- 83
2017-08-30 06:00:00 13.9 14 Sudeste 21 Sudeste 0 -- -- 89
2017-08-30 05:00:00 14.5 11 Sudeste 16 Sudeste 0 -- -- 84
2017-08-30 04:00:00 14.8 0 Calma 6 Sudeste 0 -- -- 81
2017-08-30 03:00:00 14.5 6 Sudeste 8 Sudeste 0 -- -- 85
2017-08-30 02:00:00 16.2 3 Este 11 Sudeste 0 -- -- 74
2017-08-30 01:00:00 15.9 4 Sudeste 10 Sudeste 0 -- -- 74
2017-08-30 00:00:00 15.5 5 Sur 9 Sudeste 0 -- -- 84
2017-08-29 23:00:00 15.6 5 Sur 6 Sudeste 0 -- -- 88
2017-08-29 22:00:00 16.3 4 Noroeste 11 Oeste 0 -- -- 87
2017-08-29 21:00:00 17.5 6 Noroeste 13 Noroeste 0 -- -- 84
2017-08-29 20:00:00 18.9 11 Oeste 17 Oeste 0 -- -- 79
2017-08-29 19:00:00 18.4 9 Oeste 16 Sur 0 -- -- 83
2017-08-29 18:00:00 17.1 9 Sudeste 12 Sudeste 2.2 -- -- 87
2017-08-29 17:00:00 16.8 10 Oeste 22 Noroeste 0 -- -- 83
2017-08-29 16:00:00 17.9 19 Norte 32 Norte 0 -- -- 76
2017-08-29 15:00:00 21.1 12 Noroeste 23 Sudeste 0 -- -- 58
2017-08-29 14:00:00 21.3 14 Oeste 27 Oeste 0 -- -- 57
2017-08-29 13:00:00 21.8 7 Este 16 Este 0 -- -- 48
2017-08-29 12:00:00 21.2 3 Noroeste 16 Este 0 -- -- 54
2017-08-29 11:00:00 18.6 10 Este 17 Este 0 -- -- 70
2017-08-29 10:00:00 17 10 Este 16 Este 0 -- -- 78
2017-08-29 09:00:00 14.8 8 Sudeste 12 Este 0 -- -- 86
2017-08-29 08:00:00 14.5 7 Este 12 Este 0 -- -- 86
2017-08-29 07:00:00 14.8 4 Sudeste 13 Este 0 -- -- 84
2017-08-29 06:00:00 14.9 5 Este 8 Este 0 -- -- 81
2017-08-29 05:00:00 15.6 0 Calma 7 Sudoeste 0 -- -- 81
2017-08-29 04:00:00 15.8 5 Este 7 Sudeste 0 -- -- 81
2017-08-29 03:00:00 16.1 0 Calma 6 Nordeste 0 -- -- 80
2017-08-29 02:00:00 16.3 4 Norte 8 Oeste 0 -- -- 78
2017-08-29 01:00:00 17.2 7 Oeste 20 Oeste 0 -- -- 74
2017-08-29 00:00:00 17.6 10 Sudoeste 21 Sudoeste 0 -- -- 71
2017-08-28 23:00:00 18.3 17 Sudoeste 30 Sudoeste 0 -- -- 66
2017-08-28 22:00:00 19.5 26 Sudoeste 34 Sudoeste 0 -- -- 62
2017-08-28 21:00:00 20.7 23 Sudoeste 35 Sudoeste 0 -- -- 60
2017-08-28 20:00:00 22 22 Sudoeste 34 Sudoeste 0 -- -- 55
2017-08-28 19:00:00 23.9 29 Sudoeste 36 Sudoeste 0 -- -- 44
2017-08-28 18:00:00 25.1 22 Sur 33 Sur 0 -- -- 40
2017-08-28 17:00:00 25.5 15 Sur 34 Sudoeste 0 -- -- 37
2017-08-28 16:00:00 25.5 13 Sudoeste 30 Sudeste 0 -- -- 36
2017-08-28 15:00:00 24.9 14 Sur 34 Sudoeste 0 -- -- 37
2017-08-28 14:00:00 24.4 23 Sudoeste 36 Sudoeste 0 -- -- 39
2017-08-28 13:00:00 24.2 16 Sur 32 Sudoeste 0 -- -- 39
2017-08-28 12:00:00 22.8 15 Sudoeste 26 Sur 0 -- -- 42
2017-08-28 11:00:00 20.2 12 Oeste 21 Sudoeste 0 -- -- 59
2017-08-28 10:00:00 17.4 3 Sur 13 Sudeste 0 -- -- 73
2017-08-28 09:00:00 14.5 6 Sudeste 11 Sudeste 0 -- -- 85
2017-08-28 08:00:00 13.5 7 Oeste 13 Oeste 0 -- -- 84
2017-08-28 07:00:00 14.2 5 Oeste 12 Oeste 0 -- -- 81
2017-08-28 06:00:00 15.3 3 Sur 5 Sudoeste 0 -- -- 78
2017-08-28 05:00:00 15.8 6 Oeste 9 Oeste 0 -- -- 77
2017-08-28 04:00:00 16.6 4 Oeste 7 Oeste 0 -- -- 73
2017-08-28 03:00:00 17 5 Sudoeste 10 Sudoeste 0 -- -- 69
2017-08-28 02:00:00 17.7 5 Sudoeste 13 Sudoeste 0 -- -- 67
2017-08-28 01:00:00 18.4 11 Sudoeste 17 Oeste 0 -- -- 61
2017-08-28 00:00:00 20.1 8 Sudoeste 15 Sur 0 -- -- 44
2017-08-27 23:00:00 21.9 5 Sur 24 Sur 0 -- -- 38
2017-08-27 22:00:00 23.7 22 Sur 32 Sur 0 -- -- 41
2017-08-27 21:00:00 24.9 32 Sur 42 Sudoeste 0 -- -- 46
2017-08-27 20:00:00 26.3 36 Sur 53 Sur 0 -- -- 41
2017-08-27 19:00:00 27.6 35 Sur 50 Sur 0 -- -- 44
2017-08-27 18:00:00 27.9 40 Sur 53 Sur 0 -- -- 41
2017-08-27 17:00:00 28.2 36 Sur 57 Sur 0 -- -- 45
2017-08-27 16:00:00 28.4 38 Sur 54 Sur 0 -- -- 42
2017-08-27 15:00:00 28.4 39 Sur 57 Sur 0 -- -- 44
2017-08-27 14:00:00 26.1 40 Sur 53 Sur 0 -- -- 53
2017-08-27 13:00:00 25.2 28 Sur 54 Sudeste 0 -- -- 59
2017-08-27 12:00:00 25.4 23 Sur 39 Sudoeste 0 -- -- 54
2017-08-27 11:00:00 24.2 22 Sur 36 Sudeste 0 -- -- 57
2017-08-27 10:00:00 22.3 27 Sur 58 Sudeste 0 -- -- 61
2017-08-27 09:00:00 22.8 44 Sur 58 Sur 0 -- -- 56
2017-08-27 08:00:00 22.8 31 Sudeste 42 Sudeste 0 -- -- 60
2017-08-27 07:00:00 23.1 27 Sudoeste 37 Sudoeste 0 -- -- 60
2017-08-27 06:00:00 23.4 17 Sur 27 Sur 0 -- -- 56
2017-08-27 05:00:00 22.9 7 Noroeste 28 Sudoeste 0 -- -- 43
2017-08-27 04:00:00 24.9 20 Sur 37 Sur 0 -- -- 48
2017-08-27 03:00:00 23.7 8 Norte 47 Sudeste 0 -- -- 38
2017-08-27 02:00:00 28.7 40 Sudeste 50 Sudeste 0 -- -- 36
2017-08-27 01:00:00 26.7 19 Sur 33 Sudeste 0 -- -- 38
2017-08-27 00:00:00 27 12 Oeste 17 Sudoeste 0 -- -- 38
2017-08-26 23:00:00 27.9 15 Sudoeste 23 Sur 0 -- -- 33
2017-08-26 22:00:00 28.9 18 Sur 25 Sudeste 0 -- -- 30
2017-08-26 21:00:00 30.1 19 Sur 35 Sur 0 -- -- 25
2017-08-26 20:00:00 31.7 17 Sur 29 Sudeste 0 -- -- 22
2017-08-26 19:00:00 32.3 21 Sudeste 41 Sudeste 0 -- -- 20
2017-08-26 18:00:00 32.9 30 Sudeste 44 Sudeste 0 -- -- 19
2017-08-26 17:00:00 32.6 24 Este 50 Sudeste 0 -- -- 19
2017-08-26 16:00:00 30.8 27 Sudeste 34 Sudeste 0 -- -- 21
2017-08-26 15:00:00 31.6 15 Este 30 Sudeste 0 -- -- 21
2017-08-26 14:00:00 30.8 18 Este 33 Nordeste 0 -- -- 23
2017-08-26 13:00:00 28.8 18 Nordeste 27 Nordeste 0 -- -- 24
2017-08-26 12:00:00 28.1 20 Nordeste 27 Nordeste 0 -- -- 24
2017-08-26 11:00:00 26.7 12 Noroeste 22 Noroeste 0 -- -- 25
2017-08-26 10:00:00 24.7 13 Oeste 20 Oeste 0 -- -- 29
2017-08-26 09:00:00 23.3 10 Noroeste 21 Noroeste 0 -- -- 32
2017-08-26 08:00:00 22 15 Oeste 24 Este 0 -- -- 32
2017-08-26 07:00:00 23.6 15 Este 19 Este 0 -- -- 28
2017-08-26 06:00:00 23.2 8 Sur 25 Oeste 0 -- -- 31
2017-08-26 05:00:00 24.9 8 Sudeste 14 Sudeste 0 -- -- 26
2017-08-26 04:00:00 24.6 12 Este 15 Este 0 -- -- 28
2017-08-26 03:00:00 24.1 10 Sudeste 12 Sudeste 0 -- -- 29
2017-08-26 02:00:00 24.6 7 Sudeste 9 Sudeste 0 -- -- 30
2017-08-26 01:00:00 25 4 Sur 9 Sudoeste 0 -- -- 28
2017-08-26 00:00:00 25.8 9 Sudoeste 13 Sudoeste 0 -- -- 27
2017-08-25 23:00:00 26.9 9 Sudoeste 16 Oeste 0 -- -- 24
2017-08-25 22:00:00 27.9 13 Oeste 18 Oeste 0 -- -- 21
2017-08-25 21:00:00 30.4 11 Sudoeste 27 Sudoeste 0 -- -- 20
2017-08-25 20:00:00 32.8 24 Oeste 32 Sudoeste 0 -- -- 16
2017-08-25 19:00:00 34 22 Sudoeste 38 Sudoeste 0 -- -- 17
2017-08-25 18:00:00 34.8 24 Sur 39 Sudoeste 0 -- -- 18
2017-08-25 17:00:00 34.2 26 Sudoeste 42 Sur 0 -- -- 18
2017-08-25 16:00:00 34.4 33 Sudoeste 45 Sur 0 -- -- 17
2017-08-25 15:00:00 35.2 29 Sudoeste 41 Sur 0 -- -- 16
2017-08-25 14:00:00 33.6 16 Sur 34 Sudoeste 0 -- -- 17
2017-08-25 13:00:00 31.7 18 Sudoeste 30 Oeste 0 -- -- 17
2017-08-25 12:00:00 29.1 6 Sudoeste 14 Sudoeste 0 -- -- 27
2017-08-25 11:00:00 26.1 4 Este 11 Nordeste 0 -- -- 34
2017-08-25 10:00:00 22.9 9 Nordeste 12 Nordeste 0 -- -- 41
2017-08-25 09:00:00 20.2 3 Nordeste 6 Nordeste 0 -- -- 49
2017-08-25 08:00:00 19.4 0 Calma 3 Sudeste 0 -- -- 52
2017-08-25 07:00:00 19.3 2 Sudoeste 6 Norte 0 -- -- 52
2017-08-25 06:00:00 19.4 7 Nordeste 9 Nordeste 0 -- -- 51
2017-08-25 05:00:00 20.4 4 Nordeste 10 Nordeste 0 -- -- 46
2017-08-25 04:00:00 20.6 10 Nordeste 14 Nordeste 0 -- -- 39
2017-08-25 03:00:00 23.5 5 Este 10 Nordeste 0 -- -- 31
2017-08-25 02:00:00 24.2 4 Sur 7 Sur 0 -- -- 30
2017-08-25 01:00:00 24.7 4 Sudoeste 13 Sudoeste 0 -- -- 29
2017-08-25 00:00:00 25.4 6 Sudoeste 9 Oeste 0 -- -- 29
2017-08-24 23:00:00 26 8 Oeste 12 Oeste 0 -- -- 27
2017-08-24 22:00:00 26.9 10 Oeste 26 Oeste 0 -- -- 26
2017-08-24 21:00:00 29 21 Oeste 28 Oeste 0 -- -- 24
2017-08-24 20:00:00 31.2 21 Noroeste 35 Oeste 0 -- -- 22
2017-08-24 19:00:00 32.3 26 Noroeste 40 Oeste 0 -- -- 20
2017-08-24 18:00:00 34.8 27 Oeste 38 Oeste 0 -- -- 20
2017-08-24 17:00:00 35.3 20 Oeste 45 Oeste 0 -- -- 20
2017-08-24 16:00:00 35.3 15 Noroeste 33 Sudoeste 0 -- -- 18
2017-08-24 15:00:00 34.3 18 Oeste 37 Oeste 0 -- -- 20
2017-08-24 14:00:00 33.6 15 Oeste 33 Sudoeste 0 -- -- 20
2017-08-24 13:00:00 31.8 15 Sudoeste 27 Sudoeste 0 -- -- 20
2017-08-24 12:00:00 29.4 8 Noroeste 13 Noroeste 0 -- -- 30
2017-08-24 11:00:00 27 7 Noroeste 11 Noroeste 0 -- -- 37
2017-08-24 10:00:00 25.2 4 Sudoeste 9 Sudeste 0 -- -- 40
2017-08-24 09:00:00 22 8 Sudeste 9 Sudeste 0 -- -- 50
2017-08-24 08:00:00 20.1 5 Sur 6 Sudoeste 0 -- -- 56
2017-08-24 07:00:00 20.9 5 Sudoeste -- -- 0 -- -- 54
2017-08-24 06:00:00 21.1 4 Sudoeste 5 Sudoeste 0 -- -- 53
2017-08-24 05:00:00 21.4 0 Calma 5 Oeste 0 -- -- 51
2017-08-24 04:00:00 22.3 3 Oeste 12 Sudoeste 0 -- -- 48
2017-08-24 03:00:00 22.7 9 Sudoeste 14 Sudoeste 0 -- -- 46
2017-08-24 02:00:00 24.1 7 Sudoeste 14 Sudoeste 0 -- -- 41
2017-08-24 01:00:00 25.4 9 Sudoeste 17 Oeste 0 -- -- 37
2017-08-24 00:00:00 26.5 17 Oeste 28 Sudoeste 0 -- -- 33